createdAt,value
2022-09-12T00:01:09.142Z,0.98
2022-09-12T00:03:53.015Z,0.98
2022-09-12T00:06:36.979Z,1.02
2022-09-12T00:09:21.099Z,1.10
2022-09-12T00:12:04.068Z,0.90
2022-09-12T00:14:46.743Z,0.88
2022-09-12T00:17:29.378Z,0.80
2022-09-12T00:20:12.272Z,1.00
2022-09-12T00:22:54.884Z,0.85
2022-09-12T00:25:43.558Z,0.80
2022-09-12T00:28:26.368Z,0.90
2022-09-12T00:31:10.118Z,0.77
2022-09-12T00:33:52.918Z,0.73
2022-09-12T00:36:35.671Z,0.90
2022-09-12T00:39:19.981Z,0.77
2022-09-12T00:42:04.032Z,0.73
2022-09-12T00:44:49.318Z,0.85
2022-09-12T00:47:32.806Z,0.75
2022-09-12T00:50:15.916Z,1.00
2022-09-12T00:53:00.428Z,0.75
2022-09-12T00:55:44.197Z,0.90
2022-09-12T00:58:30.049Z,1.10
2022-09-12T01:01:17.320Z,0.90
2022-09-12T01:04:00.141Z,1.10
2022-09-12T01:06:44.208Z,0.90
2022-09-12T01:09:26.869Z,1.10
2022-09-12T01:12:09.733Z,1.10
2022-09-12T01:14:53.941Z,0.93
2022-09-12T01:17:41.007Z,1.00
2022-09-12T01:20:40.900Z,0.93
2022-09-12T01:23:35.608Z,0.90
2022-09-12T01:26:36.673Z,0.85
2022-09-12T01:29:33.147Z,0.95
2022-09-12T01:32:22.613Z,0.93
2022-09-12T01:35:08.633Z,0.95
2022-09-12T01:37:55.367Z,1.20
2022-09-12T01:40:42.053Z,0.93
2022-09-12T01:43:28.732Z,1.00
2022-09-12T01:46:20.946Z,0.80
2022-09-12T01:49:08.458Z,0.90
2022-09-12T01:51:55.155Z,0.82
2022-09-12T01:54:39.971Z,1.00
2022-09-12T01:57:26.096Z,0.80
2022-09-12T02:00:11.381Z,0.80
2022-09-12T02:02:58.934Z,0.88
2022-09-12T02:05:45.098Z,0.80
2022-09-12T02:08:29.962Z,0.80
2022-09-12T02:11:13.262Z,0.90
2022-09-12T02:14:05.754Z,0.60
2022-09-12T02:16:50.175Z,0.80
2022-09-12T02:19:35.601Z,0.80
2022-09-12T02:22:21.237Z,0.75
2022-09-12T02:25:05.908Z,0.70
2022-09-12T02:27:50.468Z,0.60
2022-09-12T02:30:36.913Z,0.82
2022-09-12T02:33:23.582Z,0.70
2022-09-12T02:36:21.946Z,0.68
2022-09-12T02:39:06.012Z,0.73
2022-09-12T02:41:49.310Z,0.80
2022-09-12T02:44:32.887Z,0.77
2022-09-12T02:47:19.288Z,0.90
2022-09-12T02:50:02.090Z,1.15
2022-09-12T02:52:45.116Z,1.00
2022-09-12T02:55:30.472Z,1.00
2022-09-12T02:58:16.084Z,1.17
2022-09-12T03:01:02.821Z,1.17
2022-09-12T03:03:54.155Z,1.30
2022-09-12T03:06:38.562Z,1.33
2022-09-12T03:09:23.746Z,1.33
2022-09-12T03:12:14.668Z,1.50
2022-09-12T03:15:09.156Z,1.10
2022-09-12T03:18:02.913Z,1.05
2022-09-12T03:20:48.856Z,1.05
2022-09-12T03:23:34.301Z,0.80
2022-09-12T03:26:28.842Z,0.90
2022-09-12T03:29:12.927Z,1.08
2022-09-12T03:31:56.763Z,0.80
2022-09-12T03:34:39.559Z,0.80
2022-09-12T03:37:22.176Z,0.90
2022-09-12T03:40:05.380Z,0.65
2022-09-12T03:42:48.046Z,0.90
2022-09-12T03:45:32.199Z,0.82
2022-09-12T03:48:14.972Z,0.98
2022-09-12T03:51:00.636Z,0.73
2022-09-12T03:53:43.193Z,0.80
2022-09-12T03:56:25.737Z,0.60
2022-09-12T03:59:08.470Z,0.80
2022-09-12T04:01:52.550Z,1.00
2022-09-12T04:04:35.210Z,0.80
2022-09-12T04:07:18.178Z,0.75
2022-09-12T04:10:00.813Z,0.80
2022-09-12T04:12:43.478Z,1.33
2022-09-12T04:15:26.099Z,1.10
2022-09-12T04:18:10.011Z,1.10
2022-09-12T04:20:52.641Z,1.30
2022-09-12T04:23:35.272Z,1.20
2022-09-12T04:26:21.241Z,1.20
2022-09-12T04:29:03.850Z,1.50
2022-09-12T04:31:46.451Z,1.67
2022-09-12T04:34:32.640Z,1.40
2022-09-12T04:37:15.568Z,1.40
2022-09-12T04:39:59.275Z,1.27
2022-09-12T04:42:41.908Z,1.40
2022-09-12T04:45:24.558Z,1.80
2022-09-12T04:48:07.137Z,1.30
2022-09-12T04:50:51.277Z,1.10
2022-09-12T04:53:33.890Z,1.35
2022-09-12T04:56:22.846Z,1.27
2022-09-12T04:59:05.491Z,1.40
2022-09-12T05:01:48.721Z,1.25
2022-09-12T05:04:31.637Z,1.10
2022-09-12T05:07:15.584Z,1.33
2022-09-12T05:09:58.398Z,1.08
2022-09-12T05:12:41.106Z,1.30
2022-09-12T05:15:24.941Z,1.27
2022-09-12T05:18:07.630Z,1.40
2022-09-12T05:20:50.370Z,1.30
2022-09-12T05:23:34.946Z,1.20
2022-09-12T05:26:21.545Z,1.17
2022-09-12T05:29:05.632Z,1.08
2022-09-12T05:31:51.905Z,1.20
2022-09-12T05:34:34.831Z,0.93
2022-09-12T05:37:17.520Z,1.20
2022-09-12T05:40:05.134Z,0.88
2022-09-12T05:42:48.070Z,0.63
2022-09-12T05:45:30.836Z,0.98
2022-09-12T05:48:13.529Z,0.80
2022-09-12T05:51:00.745Z,0.98
2022-09-12T05:53:43.368Z,1.02
2022-09-12T05:56:28.584Z,1.15
2022-09-12T05:59:13.153Z,0.90
2022-09-12T06:01:55.804Z,0.85
2022-09-12T06:04:38.401Z,0.80
2022-09-12T06:07:20.989Z,0.80
2022-09-12T06:10:04.519Z,0.73
2022-09-12T06:12:48.772Z,0.90
2022-09-12T06:15:31.422Z,0.88
2022-09-12T06:18:14.199Z,0.80
2022-09-12T06:20:56.807Z,0.65
2022-09-12T06:23:40.060Z,0.98
2022-09-12T06:26:23.669Z,0.98
2022-09-12T06:29:08.538Z,1.00
2022-09-12T06:31:51.376Z,0.98
2022-09-12T06:34:33.989Z,0.95
2022-09-12T06:37:16.634Z,1.00
2022-09-12T06:40:00.489Z,1.48
2022-09-12T06:42:44.523Z,1.52
2022-09-12T06:45:29.024Z,1.58
2022-09-12T06:48:11.592Z,1.60
2022-09-12T06:50:58.672Z,2.35
2022-09-12T06:53:41.658Z,2.13
2022-09-12T06:56:25.145Z,2.50
2022-09-12T06:59:07.831Z,2.65
2022-09-12T07:01:51.892Z,2.40
2022-09-12T07:04:36.825Z,2.65
2022-09-12T07:07:19.505Z,2.55
2022-09-12T07:10:02.260Z,3.10
2022-09-12T07:12:45.059Z,2.35
2022-09-12T07:15:27.859Z,2.50
2022-09-12T07:18:11.928Z,3.08
2022-09-12T07:20:54.516Z,2.88
2022-09-12T07:23:37.268Z,3.00
2022-09-12T07:26:23.320Z,2.60
2022-09-12T07:29:34.911Z,2.85
2022-09-12T07:32:09.914Z,2.88
2022-09-12T07:34:53.881Z,2.35
2022-09-12T07:37:36.483Z,2.17
2022-09-12T07:40:19.165Z,2.40
2022-09-12T07:43:01.839Z,2.05
2022-09-12T07:45:44.522Z,2.35
2022-09-12T07:48:28.506Z,2.25
2022-09-12T07:51:12.751Z,2.22
2022-09-12T07:53:56.426Z,2.60
2022-09-12T07:56:39.657Z,2.22
2022-09-12T07:59:41.833Z,2.30
2022-09-12T08:02:25.117Z,2.25
2022-09-12T08:05:08.030Z,1.85
2022-09-12T08:07:55.877Z,2.10
2022-09-12T08:10:40.593Z,2.17
2022-09-12T08:13:23.260Z,2.30
2022-09-12T08:16:07.033Z,1.90
2022-09-12T08:18:50.272Z,1.98
2022-09-12T08:21:33.933Z,2.08
2022-09-12T08:24:18.197Z,1.90
2022-09-12T08:27:00.926Z,2.22
2022-09-12T08:29:43.528Z,2.20
2022-09-12T08:32:26.292Z,1.95
2022-09-12T08:35:09.452Z,2.13
2022-09-12T08:37:52.112Z,1.73
2022-09-12T08:40:41.293Z,1.88
2022-09-12T08:43:29.709Z,1.60
2022-09-12T08:46:23.101Z,1.70
2022-09-12T08:49:08.932Z,1.73
2022-09-12T08:51:52.037Z,1.70
2022-09-12T08:54:35.185Z,2.10
2022-09-12T08:57:19.246Z,1.80
2022-09-12T09:00:04.084Z,1.77
2022-09-12T09:03:01.793Z,1.98
2022-09-12T09:05:49.720Z,1.42
2022-09-12T09:08:37.749Z,1.50
2022-09-12T09:11:30.522Z,1.70
2022-09-12T09:14:41.774Z,1.63
2022-09-12T09:17:26.894Z,1.60
2022-09-12T09:20:15.314Z,1.80
2022-09-12T09:22:59.667Z,1.33
2022-09-12T09:25:45.773Z,1.20
2022-09-12T09:28:33.038Z,1.02
2022-09-12T09:31:25.599Z,1.30
2022-09-12T09:34:13.896Z,1.05
2022-09-12T09:37:03.142Z,1.27
2022-09-12T09:39:50.946Z,1.20
2022-09-12T09:42:39.244Z,0.95
2022-09-12T09:45:24.219Z,1.30
2022-09-12T09:48:14.508Z,1.08
2022-09-12T09:51:03.482Z,1.10
2022-09-12T09:53:47.795Z,1.00
2022-09-12T09:56:33.905Z,0.98
2022-09-12T09:59:17.869Z,1.08
2022-09-12T10:02:03.697Z,1.00
2022-09-12T10:04:55.700Z,0.88
2022-09-12T10:07:38.317Z,1.05
2022-09-12T10:10:22.824Z,1.05
2022-09-12T10:13:10.241Z,0.90
2022-09-12T10:15:57.445Z,0.90
2022-09-12T10:18:42.182Z,1.00
2022-09-12T10:21:40.250Z,1.00
2022-09-12T10:24:25.535Z,0.80
2022-09-12T10:27:09.859Z,0.95
2022-09-12T10:29:54.598Z,0.80
2022-09-12T10:32:38.765Z,0.60
2022-09-12T10:35:22.831Z,0.88
2022-09-12T10:38:07.867Z,0.73
2022-09-12T10:40:57.132Z,0.90
2022-09-12T10:43:41.671Z,0.60
2022-09-12T10:46:30.701Z,0.90
2022-09-12T10:49:14.127Z,0.60
2022-09-12T10:51:59.691Z,0.80
2022-09-12T10:54:44.067Z,0.73
2022-09-12T10:57:43.974Z,0.70
2022-09-12T11:00:30.390Z,0.90
2022-09-12T11:03:17.185Z,0.93
2022-09-12T11:06:01.565Z,0.80
2022-09-12T11:08:53.502Z,0.93
2022-09-12T11:11:52.375Z,1.00
2022-09-12T11:14:38.925Z,0.90
2022-09-12T11:17:26.455Z,0.70
2022-09-12T11:20:22.827Z,0.98
2022-09-12T11:23:17.696Z,0.88
2022-09-12T11:26:03.620Z,1.30
2022-09-12T11:28:53.580Z,1.35
2022-09-12T11:31:45.983Z,1.20
2022-09-12T11:34:34.563Z,1.10
2022-09-12T11:37:24.375Z,1.13
2022-09-12T11:40:16.302Z,1.20
2022-09-12T11:43:01.829Z,1.23
2022-09-12T11:45:47.242Z,1.30
2022-09-12T11:48:35.869Z,0.80
2022-09-12T11:51:26.865Z,1.25
2022-09-12T11:54:15.050Z,1.20
2022-09-12T11:57:02.384Z,1.25
2022-09-12T11:59:47.619Z,1.05
2022-09-12T12:02:37.132Z,1.15
2022-09-12T12:05:21.594Z,1.15
2022-09-12T12:08:18.863Z,1.30
2022-09-12T12:11:02.515Z,1.20
2022-09-12T12:13:47.950Z,1.10
2022-09-12T12:16:31.955Z,1.15
2022-09-12T12:19:29.670Z,0.98
2022-09-12T12:22:17.757Z,1.00
2022-09-12T12:25:04.109Z,1.15
2022-09-12T12:27:49.046Z,1.20
2022-09-12T12:31:05.743Z,1.30
2022-09-12T12:34:16.309Z,1.15
2022-09-12T12:37:05.541Z,1.35
2022-09-12T12:40:01.103Z,1.40
2022-09-12T12:43:04.610Z,0.90
2022-09-12T12:46:02.472Z,1.20
2022-09-12T12:51:57.053Z,1.40
2022-09-12T12:55:05.115Z,1.02
2022-09-12T12:57:50.548Z,1.33
2022-09-12T13:00:34.508Z,1.10
2022-09-12T13:03:25.051Z,1.08
2022-09-12T13:06:09.593Z,1.38
2022-09-12T13:08:59.849Z,1.10
2022-09-12T13:11:42.607Z,1.17
2022-09-12T13:14:50.501Z,1.23
2022-09-12T13:17:34.935Z,1.08
2022-09-12T13:20:28.957Z,1.20
2022-09-12T13:23:22.143Z,1.27
2022-09-12T13:26:11.162Z,1.10
2022-09-12T13:29:09.181Z,1.30
2022-09-12T13:31:55.026Z,0.90
2022-09-12T13:34:42.659Z,1.30
2022-09-12T13:37:41.336Z,1.20
2022-09-12T13:40:30.042Z,1.00
2022-09-12T13:43:15.993Z,1.50
2022-09-12T13:45:58.788Z,1.20
2022-09-12T13:48:43.656Z,1.10
2022-09-12T13:51:28.171Z,1.20
2022-09-12T13:54:21.319Z,1.20
2022-09-12T13:57:07.098Z,1.10
2022-09-12T13:59:49.899Z,1.10
2022-09-12T14:02:35.824Z,0.90
2022-09-12T14:05:22.147Z,1.25
2022-09-12T14:08:08.334Z,1.15
2022-09-12T14:10:51.952Z,1.20
2022-09-12T14:13:35.784Z,1.10
2022-09-12T14:16:18.423Z,0.90
2022-09-12T14:19:01.842Z,1.10
2022-09-12T14:21:47.034Z,1.15
2022-09-12T14:24:29.752Z,1.10
2022-09-12T14:27:12.749Z,0.82
2022-09-12T14:30:01.900Z,1.20
2022-09-12T14:32:44.670Z,1.23
2022-09-12T14:35:27.532Z,1.20
2022-09-12T14:38:15.442Z,1.33
2022-09-12T14:41:00.773Z,0.93
2022-09-12T14:43:45.541Z,1.10
2022-09-12T14:46:31.840Z,1.08
2022-09-12T14:49:16.970Z,0.82
2022-09-12T14:52:00.844Z,1.20
2022-09-12T14:54:45.339Z,1.10
2022-09-12T14:57:36.417Z,0.90
2022-09-12T15:00:21.437Z,1.00
2022-09-12T15:03:24.453Z,1.30
2022-09-12T15:06:08.001Z,1.17
2022-09-12T15:08:51.005Z,1.20
2022-09-12T15:11:35.022Z,1.13
2022-09-12T15:14:17.749Z,1.20
2022-09-12T15:17:00.414Z,1.10
2022-09-12T15:19:43.084Z,1.08
2022-09-12T15:22:26.152Z,1.20
2022-09-12T15:25:09.214Z,1.35
2022-09-12T15:27:53.763Z,1.27
2022-09-12T15:30:36.386Z,1.05
2022-09-12T15:33:19.578Z,1.27
2022-09-12T15:36:02.287Z,1.30
2022-09-12T15:38:44.925Z,1.20
2022-09-12T15:41:29.433Z,1.42
2022-09-12T15:44:14.159Z,1.50
2022-09-12T15:46:56.805Z,1.30
2022-09-12T15:49:39.482Z,1.52
2022-09-12T15:52:22.156Z,1.20
2022-09-12T15:55:05.026Z,1.20
2022-09-12T15:57:47.767Z,1.35
2022-09-12T16:00:31.795Z,1.23
2022-09-12T16:03:19.292Z,1.38
2022-09-12T16:06:05.031Z,1.15
2022-09-12T16:08:48.020Z,1.10
2022-09-12T16:11:30.771Z,1.08
2022-09-12T16:14:14.756Z,1.27
2022-09-12T16:16:58.926Z,0.90
2022-09-12T16:19:41.620Z,1.25
2022-09-12T16:22:24.398Z,0.95
2022-09-12T16:25:07.968Z,1.20
2022-09-12T16:27:50.888Z,1.27
2022-09-12T16:30:33.924Z,1.20
2022-09-12T16:33:17.920Z,1.10
2022-09-12T16:36:05.785Z,1.20
2022-09-12T16:38:49.309Z,1.27
2022-09-12T16:41:32.031Z,1.30
2022-09-12T16:44:14.765Z,1.20
2022-09-12T16:46:57.769Z,1.20
2022-09-12T16:49:41.949Z,1.40
2022-09-12T16:52:24.540Z,1.20
2022-09-12T16:55:07.784Z,1.10
2022-09-12T16:57:50.585Z,1.20
2022-09-12T17:00:33.592Z,1.20
2022-09-12T17:03:17.227Z,1.40
2022-09-12T17:06:01.590Z,1.30
2022-09-12T17:08:45.329Z,1.60
2022-09-12T17:11:30.487Z,1.30
2022-09-12T17:14:13.202Z,1.40
2022-09-12T17:16:58.886Z,1.27
2022-09-12T17:19:43.459Z,1.38
2022-09-12T17:22:27.793Z,1.52
2022-09-12T17:25:10.706Z,1.65
2022-09-12T17:27:53.355Z,1.67
2022-09-12T17:30:36.139Z,1.98
2022-09-12T17:33:18.757Z,2.28
2022-09-12T17:36:02.501Z,1.70
2022-09-12T17:38:47.139Z,1.60
2022-09-12T17:41:31.860Z,1.70
2022-09-12T17:44:16.022Z,1.80
2022-09-12T17:46:58.985Z,1.90
2022-09-12T17:49:41.606Z,1.65
2022-09-12T17:52:24.390Z,1.90
2022-09-12T17:55:08.606Z,1.60
2022-09-12T17:57:51.466Z,1.70
2022-09-12T18:00:52.501Z,1.70
2022-09-12T18:03:35.341Z,1.80
2022-09-12T18:06:17.965Z,2.00
2022-09-12T18:09:02.316Z,1.77
2022-09-12T18:11:46.751Z,1.70
2022-09-12T18:14:29.541Z,1.90
2022-09-12T18:17:12.245Z,1.80
2022-09-12T18:19:55.306Z,1.83
2022-09-12T18:22:37.927Z,1.83
2022-09-12T18:25:20.841Z,2.00
2022-09-12T18:28:09.268Z,1.80
2022-09-12T18:30:52.209Z,2.08
2022-09-12T18:33:34.948Z,1.90
2022-09-12T18:36:18.648Z,2.03
2022-09-12T18:39:01.254Z,2.03
2022-09-12T18:41:43.998Z,2.00
2022-09-12T18:44:28.010Z,2.17
2022-09-12T18:47:10.968Z,2.30
2022-09-12T18:49:53.661Z,2.10
2022-09-12T18:52:36.474Z,1.73
2022-09-12T18:55:23.581Z,2.00
2022-09-12T18:58:06.524Z,2.22
2022-09-12T19:00:50.569Z,1.80
2022-09-12T19:03:33.495Z,1.73
2022-09-12T19:06:18.006Z,2.08
2022-09-12T19:09:06.655Z,1.90
2022-09-12T19:11:50.463Z,1.58
2022-09-12T19:14:33.153Z,1.63
2022-09-12T19:17:17.944Z,1.65
2022-09-12T19:20:00.762Z,1.90
2022-09-12T19:22:43.859Z,1.80
2022-09-12T19:25:26.689Z,1.73
2022-09-12T19:28:09.352Z,1.77
2022-09-12T19:30:53.294Z,1.80
2022-09-12T19:33:37.789Z,1.67
2022-09-12T19:36:43.669Z,1.60
2022-09-12T19:39:25.251Z,2.00
2022-09-12T19:42:08.303Z,1.80
2022-09-12T19:44:55.651Z,2.10
2022-09-12T19:47:38.286Z,1.75
2022-09-12T19:50:22.428Z,1.88
2022-09-12T19:53:05.052Z,1.73
2022-09-12T19:55:48.083Z,1.70
2022-09-12T19:58:31.259Z,1.67
2022-09-12T20:01:14.851Z,1.50
2022-09-12T20:03:57.871Z,1.50
2022-09-12T20:06:42.597Z,1.70
2022-09-12T20:09:25.284Z,1.70
2022-09-12T20:12:08.389Z,1.70
2022-09-12T20:14:51.537Z,1.60
2022-09-12T20:17:34.612Z,1.70
2022-09-12T20:20:17.315Z,1.95
2022-09-12T20:23:01.380Z,1.65
2022-09-12T20:25:44.092Z,1.65
2022-09-12T20:28:26.774Z,1.80
2022-09-12T20:31:12.049Z,1.60
2022-09-12T20:33:55.320Z,1.38
2022-09-12T20:36:37.976Z,1.80
2022-09-12T20:39:23.175Z,1.70
2022-09-12T20:42:06.009Z,1.85
2022-09-12T20:44:48.671Z,1.50
2022-09-12T20:47:31.674Z,1.50
2022-09-12T20:50:14.495Z,1.67
2022-09-12T20:52:57.308Z,1.60
2022-09-12T20:55:41.456Z,1.67
2022-09-12T20:58:24.567Z,1.73
2022-09-12T21:01:11.631Z,1.48
2022-09-12T21:03:54.868Z,1.65
2022-09-12T21:06:37.651Z,1.33
2022-09-12T21:09:20.282Z,1.85
2022-09-12T21:12:04.627Z,1.73
2022-09-12T21:14:47.603Z,1.80
2022-09-12T21:17:30.360Z,1.90
2022-09-12T21:20:13.314Z,1.88
2022-09-12T21:22:55.990Z,1.77
2022-09-12T21:25:38.910Z,1.60
2022-09-12T21:28:23.427Z,1.60
2022-09-12T21:31:09.751Z,1.90
2022-09-12T21:33:52.762Z,1.73
2022-09-12T21:36:35.589Z,1.70
2022-09-12T21:39:18.298Z,1.73
2022-09-12T21:42:01.320Z,1.65
2022-09-12T21:44:45.290Z,1.60
2022-09-12T21:47:28.179Z,1.70
2022-09-12T21:50:11.101Z,1.90
2022-09-12T21:52:54.020Z,2.10
2022-09-12T21:55:36.648Z,1.90
2022-09-12T21:58:19.666Z,1.98
2022-09-12T22:01:06.449Z,2.05
2022-09-12T22:03:49.466Z,1.70
2022-09-12T22:06:32.235Z,1.83
2022-09-12T22:09:16.886Z,2.00
2022-09-12T22:11:59.678Z,1.88
2022-09-12T22:14:42.413Z,1.92
2022-09-12T22:17:26.540Z,1.80
2022-09-12T22:20:09.582Z,1.90
2022-09-12T22:23:09.727Z,1.83
2022-09-12T22:25:54.132Z,1.77
2022-09-12T22:28:36.764Z,1.88
2022-09-12T22:31:19.613Z,1.80
2022-09-12T22:34:03.823Z,2.05
2022-09-12T22:36:48.025Z,2.00
2022-09-12T22:39:30.892Z,1.90
2022-09-12T22:42:13.495Z,1.95
2022-09-12T22:44:56.332Z,1.80
2022-09-12T22:47:38.915Z,2.00
2022-09-12T22:50:23.036Z,2.20
2022-09-12T22:53:05.776Z,2.00
2022-09-12T22:55:48.456Z,2.03
2022-09-12T22:58:31.086Z,2.15
2022-09-12T23:01:13.837Z,2.22
2022-09-12T23:03:56.656Z,2.13
2022-09-12T23:06:40.787Z,2.10
2022-09-12T23:09:23.536Z,1.92
2022-09-12T23:12:06.399Z,1.88
2022-09-12T23:14:48.988Z,2.00
2022-09-12T23:17:33.224Z,2.20
2022-09-12T23:20:17.897Z,2.10
2022-09-12T23:23:01.928Z,1.77
2022-09-12T23:25:44.579Z,1.90
2022-09-12T23:28:27.293Z,1.80
2022-09-12T23:31:10.193Z,2.20
2022-09-12T23:33:53.375Z,1.92
2022-09-12T23:36:36.001Z,1.95
2022-09-12T23:39:20.107Z,2.20
2022-09-12T23:42:02.987Z,1.92
2022-09-12T23:44:45.648Z,1.88
2022-09-12T23:47:28.309Z,1.90
2022-09-12T23:50:10.969Z,1.88
2022-09-12T23:52:53.640Z,1.70
2022-09-12T23:55:37.751Z,1.98
2022-09-12T23:58:21.786Z,1.85
